sensor_id;sensor_type;location;lat;lon;timestamp;P1;durP1;ratioP1;P2;durP2;ratioP2
12906;SDS011;6521;50.498;8.474;2023-03-21T00:00:25;10.93;;;3.37;;
12906;SDS011;6521;50.498;8.474;2023-03-21T00:03:16;8.30;;;3.13;;
12906;SDS011;6521;50.498;8.474;2023-03-21T00:06:07;8.93;;;2.83;;
12906;SDS011;6521;50.498;8.474;2023-03-21T00:09:00;8.37;;;2.60;;
12906;SDS011;6521;50.498;8.474;2023-03-21T00:11:51;5.30;;;2.73;;
12906;SDS011;6521;50.498;8.474;2023-03-21T00:14:42;6.57;;;2.90;;
12906;SDS011;6521;50.498;8.474;2023-03-21T00:17:34;6.43;;;2.60;;
12906;SDS011;6521;50.498;8.474;2023-03-21T00:20:25;4.23;;;2.50;;
12906;SDS011;6521;50.498;8.474;2023-03-21T00:23:16;10.87;;;3.03;;
12906;SDS011;6521;50.498;8.474;2023-03-21T00:26:07;9.23;;;2.90;;
12906;SDS011;6521;50.498;8.474;2023-03-21T00:28:59;8.80;;;3.50;;
12906;SDS011;6521;50.498;8.474;2023-03-21T00:31:50;6.20;;;3.27;;
12906;SDS011;6521;50.498;8.474;2023-03-21T00:34:41;8.10;;;3.20;;
12906;SDS011;6521;50.498;8.474;2023-03-21T00:37:32;7.87;;;2.50;;
12906;SDS011;6521;50.498;8.474;2023-03-21T00:40:23;8.27;;;3.03;;
12906;SDS011;6521;50.498;8.474;2023-03-21T00:43:15;10.07;;;2.87;;
12906;SDS011;6521;50.498;8.474;2023-03-21T00:46:07;4.17;;;2.70;;
12906;SDS011;6521;50.498;8.474;2023-03-21T00:48:58;8.63;;;3.20;;
12906;SDS011;6521;50.498;8.474;2023-03-21T00:51:48;4.27;;;2.70;;
12906;SDS011;6521;50.498;8.474;2023-03-21T00:54:40;6.53;;;3.00;;
12906;SDS011;6521;50.498;8.474;2023-03-21T00:57:32;6.53;;;2.90;;
12906;SDS011;6521;50.498;8.474;2023-03-21T01:00:23;11.80;;;2.97;;
12906;SDS011;6521;50.498;8.474;2023-03-21T01:03:15;10.47;;;2.97;;
12906;SDS011;6521;50.498;8.474;2023-03-21T01:06:06;5.17;;;2.70;;
12906;SDS011;6521;50.498;8.474;2023-03-21T01:08:57;5.77;;;2.30;;
12906;SDS011;6521;50.498;8.474;2023-03-21T01:11:48;5.53;;;2.60;;
12906;SDS011;6521;50.498;8.474;2023-03-21T01:14:39;5.97;;;2.77;;
12906;SDS011;6521;50.498;8.474;2023-03-21T01:17:30;6.87;;;3.00;;
12906;SDS011;6521;50.498;8.474;2023-03-21T01:20:21;7.43;;;2.63;;
12906;SDS011;6521;50.498;8.474;2023-03-21T01:23:13;7.47;;;3.60;;
12906;SDS011;6521;50.498;8.474;2023-03-21T01:26:05;7.73;;;4.43;;
12906;SDS011;6521;50.498;8.474;2023-03-21T01:28:57;9.73;;;5.07;;
12906;SDS011;6521;50.498;8.474;2023-03-21T01:31:47;11.27;;;5.87;;
12906;SDS011;6521;50.498;8.474;2023-03-21T01:34:38;13.47;;;6.23;;
12906;SDS011;6521;50.498;8.474;2023-03-21T01:37:30;11.70;;;5.70;;
12906;SDS011;6521;50.498;8.474;2023-03-21T01:40:23;12.07;;;5.50;;
12906;SDS011;6521;50.498;8.474;2023-03-21T01:49:33;7.10;;;3.93;;
12906;SDS011;6521;50.498;8.474;2023-03-21T01:52:48;7.90;;;3.80;;
12906;SDS011;6521;50.498;8.474;2023-03-21T01:55:55;4.70;;;2.90;;
12906;SDS011;6521;50.498;8.474;2023-03-21T01:59:08;8.37;;;3.33;;
12906;SDS011;6521;50.498;8.474;2023-03-21T02:02:24;4.90;;;3.23;;
12906;SDS011;6521;50.498;8.474;2023-03-21T02:05:29;7.07;;;3.27;;
12906;SDS011;6521;50.498;8.474;2023-03-21T02:08:42;4.23;;;2.90;;
12906;SDS011;6521;50.498;8.474;2023-03-21T02:11:37;11.80;;;2.93;;
12906;SDS011;6521;50.498;8.474;2023-03-21T02:14:29;13.83;;;3.47;;
12906;SDS011;6521;50.498;8.474;2023-03-21T02:17:34;5.27;;;2.60;;
12906;SDS011;6521;50.498;8.474;2023-03-21T02:20:52;5.47;;;3.17;;
12906;SDS011;6521;50.498;8.474;2023-03-21T02:27:31;7.73;;;3.00;;
12906;SDS011;6521;50.498;8.474;2023-03-21T02:30:34;5.20;;;2.97;;
12906;SDS011;6521;50.498;8.474;2023-03-21T02:33:41;6.07;;;2.60;;
12906;SDS011;6521;50.498;8.474;2023-03-21T02:45:58;8.10;;;2.60;;
12906;SDS011;6521;50.498;8.474;2023-03-21T02:52:01;3.77;;;2.37;;
12906;SDS011;6521;50.498;8.474;2023-03-21T02:54:53;6.07;;;3.27;;
12906;SDS011;6521;50.498;8.474;2023-03-21T02:57:49;4.40;;;2.50;;
12906;SDS011;6521;50.498;8.474;2023-03-21T03:00:42;6.17;;;2.97;;
12906;SDS011;6521;50.498;8.474;2023-03-21T03:03:36;7.80;;;3.20;;
12906;SDS011;6521;50.498;8.474;2023-03-21T03:06:40;5.50;;;3.07;;
12906;SDS011;6521;50.498;8.474;2023-03-21T03:09:55;6.80;;;3.33;;
12906;SDS011;6521;50.498;8.474;2023-03-21T03:19:56;6.93;;;3.27;;
12906;SDS011;6521;50.498;8.474;2023-03-21T03:23:03;5.90;;;3.23;;
12906;SDS011;6521;50.498;8.474;2023-03-21T03:29:19;4.20;;;3.10;;
12906;SDS011;6521;50.498;8.474;2023-03-21T03:32:16;12.00;;;3.30;;
12906;SDS011;6521;50.498;8.474;2023-03-21T03:35:12;5.17;;;2.70;;
12906;SDS011;6521;50.498;8.474;2023-03-21T03:38:09;5.87;;;3.10;;
12906;SDS011;6521;50.498;8.474;2023-03-21T03:41:03;3.73;;;2.67;;
12906;SDS011;6521;50.498;8.474;2023-03-21T03:44:08;6.27;;;3.00;;
12906;SDS011;6521;50.498;8.474;2023-03-21T03:47:04;6.63;;;3.30;;
12906;SDS011;6521;50.498;8.474;2023-03-21T03:56:31;9.83;;;3.57;;
12906;SDS011;6521;50.498;8.474;2023-03-21T03:59:22;10.77;;;3.87;;
12906;SDS011;6521;50.498;8.474;2023-03-21T04:02:44;5.03;;;3.10;;
12906;SDS011;6521;50.498;8.474;2023-03-21T04:05:38;4.57;;;2.97;;
12906;SDS011;6521;50.498;8.474;2023-03-21T04:08:32;4.67;;;2.80;;
12906;SDS011;6521;50.498;8.474;2023-03-21T04:11:23;8.17;;;3.17;;
12906;SDS011;6521;50.498;8.474;2023-03-21T04:14:17;10.17;;;3.80;;
12906;SDS011;6521;50.498;8.474;2023-03-21T04:17:13;7.77;;;3.53;;
12906;SDS011;6521;50.498;8.474;2023-03-21T04:20:08;10.23;;;4.00;;
12906;SDS011;6521;50.498;8.474;2023-03-21T04:23:00;8.33;;;3.63;;
12906;SDS011;6521;50.498;8.474;2023-03-21T04:25:51;10.33;;;3.90;;
12906;SDS011;6521;50.498;8.474;2023-03-21T04:28:43;7.40;;;3.87;;
12906;SDS011;6521;50.498;8.474;2023-03-21T04:31:59;9.37;;;3.77;;
12906;SDS011;6521;50.498;8.474;2023-03-21T04:34:52;9.70;;;3.90;;
12906;SDS011;6521;50.498;8.474;2023-03-21T04:37:47;9.03;;;4.23;;
12906;SDS011;6521;50.498;8.474;2023-03-21T04:40:39;14.57;;;3.70;;
12906;SDS011;6521;50.498;8.474;2023-03-21T04:43:30;8.17;;;3.80;;
12906;SDS011;6521;50.498;8.474;2023-03-21T04:46:22;7.50;;;3.43;;
12906;SDS011;6521;50.498;8.474;2023-03-21T04:49:17;8.83;;;3.23;;
12906;SDS011;6521;50.498;8.474;2023-03-21T04:52:08;9.20;;;3.90;;
12906;SDS011;6521;50.498;8.474;2023-03-21T04:55:00;7.17;;;4.40;;
12906;SDS011;6521;50.498;8.474;2023-03-21T04:57:51;10.50;;;4.43;;
12906;SDS011;6521;50.498;8.474;2023-03-21T05:00:45;7.70;;;4.50;;
12906;SDS011;6521;50.498;8.474;2023-03-21T05:03:39;12.30;;;4.70;;
12906;SDS011;6521;50.498;8.474;2023-03-21T05:06:32;10.60;;;4.23;;
12906;SDS011;6521;50.498;8.474;2023-03-21T05:09:26;11.27;;;4.20;;
12906;SDS011;6521;50.498;8.474;2023-03-21T05:12:17;7.67;;;3.87;;
12906;SDS011;6521;50.498;8.474;2023-03-21T05:15:09;8.93;;;4.10;;
12906;SDS011;6521;50.498;8.474;2023-03-21T05:18:00;7.40;;;4.07;;
12906;SDS011;6521;50.498;8.474;2023-03-21T05:21:05;9.43;;;3.80;;
12906;SDS011;6521;50.498;8.474;2023-03-21T05:24:01;9.17;;;3.83;;
12906;SDS011;6521;50.498;8.474;2023-03-21T05:26:58;10.77;;;4.33;;
12906;SDS011;6521;50.498;8.474;2023-03-21T05:29:54;8.63;;;4.20;;
12906;SDS011;6521;50.498;8.474;2023-03-21T05:32:45;7.90;;;3.73;;
12906;SDS011;6521;50.498;8.474;2023-03-21T05:35:36;8.90;;;3.93;;
12906;SDS011;6521;50.498;8.474;2023-03-21T05:38:30;10.67;;;3.53;;
12906;SDS011;6521;50.498;8.474;2023-03-21T05:41:22;6.77;;;3.83;;
12906;SDS011;6521;50.498;8.474;2023-03-21T05:44:13;8.83;;;4.20;;
12906;SDS011;6521;50.498;8.474;2023-03-21T05:47:05;13.10;;;4.77;;
12906;SDS011;6521;50.498;8.474;2023-03-21T05:50:26;13.50;;;5.20;;
12906;SDS011;6521;50.498;8.474;2023-03-21T05:53:35;12.07;;;5.03;;
12906;SDS011;6521;50.498;8.474;2023-03-21T05:56:25;9.33;;;4.93;;
12906;SDS011;6521;50.498;8.474;2023-03-21T05:59:27;8.70;;;4.80;;
12906;SDS011;6521;50.498;8.474;2023-03-21T06:02:21;13.20;;;4.90;;
12906;SDS011;6521;50.498;8.474;2023-03-21T06:05:15;13.20;;;4.80;;
12906;SDS011;6521;50.498;8.474;2023-03-21T06:08:06;9.37;;;4.53;;
12906;SDS011;6521;50.498;8.474;2023-03-21T06:10:57;9.93;;;4.83;;
12906;SDS011;6521;50.498;8.474;2023-03-21T06:13:52;10.17;;;4.60;;
12906;SDS011;6521;50.498;8.474;2023-03-21T06:17:40;7.57;;;4.90;;
12906;SDS011;6521;50.498;8.474;2023-03-21T06:20:35;8.70;;;4.60;;
12906;SDS011;6521;50.498;8.474;2023-03-21T06:23:37;7.00;;;4.30;;
12906;SDS011;6521;50.498;8.474;2023-03-21T06:26:38;9.67;;;5.43;;
12906;SDS011;6521;50.498;8.474;2023-03-21T06:29:32;11.17;;;5.57;;
12906;SDS011;6521;50.498;8.474;2023-03-21T06:32:36;13.27;;;5.27;;
12906;SDS011;6521;50.498;8.474;2023-03-21T06:35:35;24.60;;;9.67;;
12906;SDS011;6521;50.498;8.474;2023-03-21T06:38:32;28.57;;;13.13;;
12906;SDS011;6521;50.498;8.474;2023-03-21T06:41:30;37.70;;;18.47;;
12906;SDS011;6521;50.498;8.474;2023-03-21T06:44:26;30.40;;;16.13;;
12906;SDS011;6521;50.498;8.474;2023-03-21T06:47:24;16.87;;;6.27;;
12906;SDS011;6521;50.498;8.474;2023-03-21T06:50:15;12.00;;;5.10;;
12906;SDS011;6521;50.498;8.474;2023-03-21T06:53:08;8.87;;;4.80;;
12906;SDS011;6521;50.498;8.474;2023-03-21T06:56:15;12.03;;;4.10;;
12906;SDS011;6521;50.498;8.474;2023-03-21T06:59:08;10.30;;;4.70;;
12906;SDS011;6521;50.498;8.474;2023-03-21T07:02:21;12.03;;;4.73;;
12906;SDS011;6521;50.498;8.474;2023-03-21T07:05:27;15.10;;;5.07;;
12906;SDS011;6521;50.498;8.474;2023-03-21T07:08:21;11.47;;;4.83;;
12906;SDS011;6521;50.498;8.474;2023-03-21T07:11:12;9.87;;;5.77;;
12906;SDS011;6521;50.498;8.474;2023-03-21T07:14:03;9.47;;;4.90;;
12906;SDS011;6521;50.498;8.474;2023-03-21T07:16:56;10.77;;;4.63;;
12906;SDS011;6521;50.498;8.474;2023-03-21T07:19:49;14.93;;;5.23;;
12906;SDS011;6521;50.498;8.474;2023-03-21T07:22:44;11.60;;;4.97;;
12906;SDS011;6521;50.498;8.474;2023-03-21T07:25:35;11.33;;;5.37;;
12906;SDS011;6521;50.498;8.474;2023-03-21T07:28:26;10.37;;;5.70;;
12906;SDS011;6521;50.498;8.474;2023-03-21T07:31:21;12.07;;;5.33;;
12906;SDS011;6521;50.498;8.474;2023-03-21T07:34:15;13.73;;;5.63;;
12906;SDS011;6521;50.498;8.474;2023-03-21T07:37:07;12.03;;;4.50;;
12906;SDS011;6521;50.498;8.474;2023-03-21T07:39:58;12.60;;;5.10;;
12906;SDS011;6521;50.498;8.474;2023-03-21T07:42:49;16.47;;;5.17;;
12906;SDS011;6521;50.498;8.474;2023-03-21T07:45:55;11.27;;;5.27;;
12906;SDS011;6521;50.498;8.474;2023-03-21T07:48:46;10.67;;;4.93;;
12906;SDS011;6521;50.498;8.474;2023-03-21T07:51:37;12.57;;;4.67;;
12906;SDS011;6521;50.498;8.474;2023-03-21T07:54:28;11.80;;;5.13;;
12906;SDS011;6521;50.498;8.474;2023-03-21T07:57:19;11.00;;;5.10;;
12906;SDS011;6521;50.498;8.474;2023-03-21T08:00:10;12.07;;;5.20;;
12906;SDS011;6521;50.498;8.474;2023-03-21T08:03:06;9.87;;;4.43;;
12906;SDS011;6521;50.498;8.474;2023-03-21T08:05:57;10.50;;;4.30;;
12906;SDS011;6521;50.498;8.474;2023-03-21T08:08:50;11.70;;;4.80;;
12906;SDS011;6521;50.498;8.474;2023-03-21T08:11:41;11.80;;;4.90;;
12906;SDS011;6521;50.498;8.474;2023-03-21T08:14:32;9.93;;;4.67;;
12906;SDS011;6521;50.498;8.474;2023-03-21T08:17:23;11.17;;;4.60;;
12906;SDS011;6521;50.498;8.474;2023-03-21T08:20:17;12.83;;;5.00;;
12906;SDS011;6521;50.498;8.474;2023-03-21T08:23:10;9.30;;;4.23;;
12906;SDS011;6521;50.498;8.474;2023-03-21T08:26:03;10.90;;;4.23;;
12906;SDS011;6521;50.498;8.474;2023-03-21T08:28:54;9.43;;;4.40;;
12906;SDS011;6521;50.498;8.474;2023-03-21T08:31:45;7.97;;;3.53;;
12906;SDS011;6521;50.498;8.474;2023-03-21T08:34:35;12.67;;;4.20;;
12906;SDS011;6521;50.498;8.474;2023-03-21T08:37:27;10.57;;;4.30;;
12906;SDS011;6521;50.498;8.474;2023-03-21T08:40:18;9.53;;;4.30;;
12906;SDS011;6521;50.498;8.474;2023-03-21T08:43:10;9.67;;;4.37;;
12906;SDS011;6521;50.498;8.474;2023-03-21T08:46:00;11.13;;;4.60;;
12906;SDS011;6521;50.498;8.474;2023-03-21T08:48:53;11.47;;;4.83;;
12906;SDS011;6521;50.498;8.474;2023-03-21T08:51:44;10.80;;;4.37;;
12906;SDS011;6521;50.498;8.474;2023-03-21T08:54:35;16.83;;;4.97;;
12906;SDS011;6521;50.498;8.474;2023-03-21T08:57:26;12.83;;;5.17;;
12906;SDS011;6521;50.498;8.474;2023-03-21T09:00:17;12.10;;;5.17;;
12906;SDS011;6521;50.498;8.474;2023-03-21T09:03:10;8.30;;;4.47;;
12906;SDS011;6521;50.498;8.474;2023-03-21T09:06:01;9.23;;;5.00;;
12906;SDS011;6521;50.498;8.474;2023-03-21T09:08:52;10.07;;;5.67;;
12906;SDS011;6521;50.498;8.474;2023-03-21T09:11:43;15.50;;;5.47;;
12906;SDS011;6521;50.498;8.474;2023-03-21T09:14:34;11.00;;;5.70;;
12906;SDS011;6521;50.498;8.474;2023-03-21T09:17:26;10.93;;;4.70;;
12906;SDS011;6521;50.498;8.474;2023-03-21T09:20:17;12.07;;;5.37;;
12906;SDS011;6521;50.498;8.474;2023-03-21T09:23:11;14.47;;;5.03;;
12906;SDS011;6521;50.498;8.474;2023-03-21T09:26:03;14.63;;;5.80;;
12906;SDS011;6521;50.498;8.474;2023-03-21T09:28:54;11.63;;;5.30;;
12906;SDS011;6521;50.498;8.474;2023-03-21T09:31:45;13.70;;;5.87;;
12906;SDS011;6521;50.498;8.474;2023-03-21T09:34:37;9.70;;;4.57;;
12906;SDS011;6521;50.498;8.474;2023-03-21T09:37:30;12.27;;;5.70;;
12906;SDS011;6521;50.498;8.474;2023-03-21T09:46:26;11.70;;;5.13;;
12906;SDS011;6521;50.498;8.474;2023-03-21T09:49:37;10.43;;;5.23;;
12906;SDS011;6521;50.498;8.474;2023-03-21T09:52:32;12.03;;;4.90;;
12906;SDS011;6521;50.498;8.474;2023-03-21T09:55:37;13.50;;;5.60;;
12906;SDS011;6521;50.498;8.474;2023-03-21T09:58:39;13.33;;;5.60;;
12906;SDS011;6521;50.498;8.474;2023-03-21T10:01:34;10.77;;;5.60;;
12906;SDS011;6521;50.498;8.474;2023-03-21T10:04:31;10.33;;;5.17;;
12906;SDS011;6521;50.498;8.474;2023-03-21T10:07:23;11.73;;;5.60;;
12906;SDS011;6521;50.498;8.474;2023-03-21T10:10:16;14.93;;;5.90;;
12906;SDS011;6521;50.498;8.474;2023-03-21T10:13:22;18.07;;;6.50;;
12906;SDS011;6521;50.498;8.474;2023-03-21T10:16:20;14.87;;;6.83;;
12906;SDS011;6521;50.498;8.474;2023-03-21T10:19:17;12.13;;;6.07;;
12906;SDS011;6521;50.498;8.474;2023-03-21T10:22:09;13.13;;;6.57;;
12906;SDS011;6521;50.498;8.474;2023-03-21T10:24:59;20.03;;;7.30;;
12906;SDS011;6521;50.498;8.474;2023-03-21T10:27:50;13.33;;;6.23;;
12906;SDS011;6521;50.498;8.474;2023-03-21T10:30:45;22.57;;;7.10;;
12906;SDS011;6521;50.498;8.474;2023-03-21T10:33:45;13.80;;;6.67;;
12906;SDS011;6521;50.498;8.474;2023-03-21T10:36:38;15.17;;;6.73;;
12906;SDS011;6521;50.498;8.474;2023-03-21T10:39:36;15.73;;;7.77;;
12906;SDS011;6521;50.498;8.474;2023-03-21T10:42:29;13.57;;;7.50;;
12906;SDS011;6521;50.498;8.474;2023-03-21T10:45:23;12.07;;;6.50;;
12906;SDS011;6521;50.498;8.474;2023-03-21T10:48:14;13.73;;;6.70;;
12906;SDS011;6521;50.498;8.474;2023-03-21T10:51:06;12.70;;;8.50;;
12906;SDS011;6521;50.498;8.474;2023-03-21T10:54:10;15.57;;;7.63;;
12906;SDS011;6521;50.498;8.474;2023-03-21T10:57:14;13.43;;;7.03;;
12906;SDS011;6521;50.498;8.474;2023-03-21T11:00:19;15.37;;;7.43;;
12906;SDS011;6521;50.498;8.474;2023-03-21T11:03:20;15.80;;;7.10;;
12906;SDS011;6521;50.498;8.474;2023-03-21T11:06:14;20.40;;;7.17;;
12906;SDS011;6521;50.498;8.474;2023-03-21T11:09:16;16.37;;;7.20;;
12906;SDS011;6521;50.498;8.474;2023-03-21T11:12:13;13.80;;;7.23;;
12906;SDS011;6521;50.498;8.474;2023-03-21T11:18:17;16.93;;;8.70;;
12906;SDS011;6521;50.498;8.474;2023-03-21T11:21:11;19.17;;;8.27;;
12906;SDS011;6521;50.498;8.474;2023-03-21T11:24:04;16.77;;;8.10;;
12906;SDS011;6521;50.498;8.474;2023-03-21T11:26:57;16.10;;;7.67;;
12906;SDS011;6521;50.498;8.474;2023-03-21T11:29:49;20.03;;;8.67;;
12906;SDS011;6521;50.498;8.474;2023-03-21T11:32:41;14.70;;;8.40;;
12906;SDS011;6521;50.498;8.474;2023-03-21T11:35:33;15.60;;;7.73;;
12906;SDS011;6521;50.498;8.474;2023-03-21T11:38:29;14.20;;;6.97;;
12906;SDS011;6521;50.498;8.474;2023-03-21T11:41:30;17.03;;;7.20;;
12906;SDS011;6521;50.498;8.474;2023-03-21T11:44:32;14.07;;;7.70;;
12906;SDS011;6521;50.498;8.474;2023-03-21T11:47:24;15.10;;;7.50;;
12906;SDS011;6521;50.498;8.474;2023-03-21T11:50:16;16.40;;;7.77;;
12906;SDS011;6521;50.498;8.474;2023-03-21T11:56:26;17.03;;;6.83;;
12906;SDS011;6521;50.498;8.474;2023-03-21T11:59:28;9.80;;;7.00;;
12906;SDS011;6521;50.498;8.474;2023-03-21T12:05:51;11.53;;;6.63;;
12906;SDS011;6521;50.498;8.474;2023-03-21T12:17:44;11.03;;;7.00;;
12906;SDS011;6521;50.498;8.474;2023-03-21T12:22:01;16.20;;;6.83;;
12906;SDS011;6521;50.498;8.474;2023-03-21T12:24:41;13.87;;;6.97;;
12906;SDS011;6521;50.498;8.474;2023-03-21T12:36:51;10.33;;;5.80;;
12906;SDS011;6521;50.498;8.474;2023-03-21T12:43:27;9.70;;;4.10;;
12906;SDS011;6521;50.498;8.474;2023-03-21T12:49:35;13.90;;;4.33;;
12906;SDS011;6521;50.498;8.474;2023-03-21T12:55:29;11.03;;;4.17;;
12906;SDS011;6521;50.498;8.474;2023-03-21T12:58:23;9.90;;;3.90;;
12906;SDS011;6521;50.498;8.474;2023-03-21T13:01:18;10.13;;;4.00;;
12906;SDS011;6521;50.498;8.474;2023-03-21T13:07:38;5.17;;;3.27;;
12906;SDS011;6521;50.498;8.474;2023-03-21T13:10:32;6.80;;;3.60;;
12906;SDS011;6521;50.498;8.474;2023-03-21T13:16:21;8.40;;;3.77;;
12906;SDS011;6521;50.498;8.474;2023-03-21T13:19:37;6.70;;;3.20;;
12906;SDS011;6521;50.498;8.474;2023-03-21T13:22:36;6.47;;;3.53;;
12906;SDS011;6521;50.498;8.474;2023-03-21T13:25:28;9.63;;;4.27;;
12906;SDS011;6521;50.498;8.474;2023-03-21T13:28:26;7.10;;;3.67;;
12906;SDS011;6521;50.498;8.474;2023-03-21T13:31:20;7.30;;;4.03;;
12906;SDS011;6521;50.498;8.474;2023-03-21T13:34:15;7.83;;;3.50;;
12906;SDS011;6521;50.498;8.474;2023-03-21T13:37:09;9.47;;;3.77;;
12906;SDS011;6521;50.498;8.474;2023-03-21T13:40:06;6.90;;;3.60;;
12906;SDS011;6521;50.498;8.474;2023-03-21T13:49:26;7.37;;;3.13;;
12906;SDS011;6521;50.498;8.474;2023-03-21T13:52:26;7.00;;;3.40;;
12906;SDS011;6521;50.498;8.474;2023-03-21T13:55:18;5.47;;;3.10;;
12906;SDS011;6521;50.498;8.474;2023-03-21T14:04:28;6.10;;;3.33;;
12906;SDS011;6521;50.498;8.474;2023-03-21T14:07:25;7.10;;;3.17;;
12906;SDS011;6521;50.498;8.474;2023-03-21T14:10:27;10.67;;;4.17;;
12906;SDS011;6521;50.498;8.474;2023-03-21T14:13:24;7.03;;;3.70;;
12906;SDS011;6521;50.498;8.474;2023-03-21T14:16:17;9.67;;;3.40;;
12906;SDS011;6521;50.498;8.474;2023-03-21T14:19:10;9.27;;;3.83;;
12906;SDS011;6521;50.498;8.474;2023-03-21T14:22:02;6.73;;;4.03;;
12906;SDS011;6521;50.498;8.474;2023-03-21T14:27:54;7.53;;;3.77;;
12906;SDS011;6521;50.498;8.474;2023-03-21T14:30:53;9.50;;;4.10;;
12906;SDS011;6521;50.498;8.474;2023-03-21T14:33:51;8.00;;;4.30;;
12906;SDS011;6521;50.498;8.474;2023-03-21T14:36:46;9.77;;;5.33;;
12906;SDS011;6521;50.498;8.474;2023-03-21T14:39:36;8.33;;;4.90;;
12906;SDS011;6521;50.498;8.474;2023-03-21T14:42:31;7.77;;;4.90;;
12906;SDS011;6521;50.498;8.474;2023-03-21T14:45:27;8.33;;;4.70;;
12906;SDS011;6521;50.498;8.474;2023-03-21T14:48:21;11.53;;;5.40;;
12906;SDS011;6521;50.498;8.474;2023-03-21T14:51:20;8.27;;;4.73;;
12906;SDS011;6521;50.498;8.474;2023-03-21T14:54:13;11.57;;;5.23;;
12906;SDS011;6521;50.498;8.474;2023-03-21T14:57:10;7.93;;;4.63;;
12906;SDS011;6521;50.498;8.474;2023-03-21T15:00:05;7.90;;;5.30;;
12906;SDS011;6521;50.498;8.474;2023-03-21T15:03:02;12.90;;;5.57;;
12906;SDS011;6521;50.498;8.474;2023-03-21T15:05:56;7.87;;;5.57;;
12906;SDS011;6521;50.498;8.474;2023-03-21T15:08:55;8.73;;;5.30;;
12906;SDS011;6521;50.498;8.474;2023-03-21T15:11:54;5.67;;;4.43;;
12906;SDS011;6521;50.498;8.474;2023-03-21T15:14:46;8.53;;;5.23;;
12906;SDS011;6521;50.498;8.474;2023-03-21T15:17:38;10.07;;;5.53;;
12906;SDS011;6521;50.498;8.474;2023-03-21T15:20:30;7.17;;;5.77;;
12906;SDS011;6521;50.498;8.474;2023-03-21T15:23:30;9.67;;;6.03;;
12906;SDS011;6521;50.498;8.474;2023-03-21T15:26:43;11.13;;;5.93;;
12906;SDS011;6521;50.498;8.474;2023-03-21T15:29:35;8.33;;;5.73;;
12906;SDS011;6521;50.498;8.474;2023-03-21T15:32:26;8.27;;;5.47;;
12906;SDS011;6521;50.498;8.474;2023-03-21T15:35:24;6.97;;;5.83;;
12906;SDS011;6521;50.498;8.474;2023-03-21T15:38:20;7.40;;;5.93;;
12906;SDS011;6521;50.498;8.474;2023-03-21T15:44:12;11.13;;;5.90;;
12906;SDS011;6521;50.498;8.474;2023-03-21T15:47:04;8.80;;;5.77;;
12906;SDS011;6521;50.498;8.474;2023-03-21T15:49:55;8.20;;;5.20;;
12906;SDS011;6521;50.498;8.474;2023-03-21T15:52:50;7.40;;;5.67;;
12906;SDS011;6521;50.498;8.474;2023-03-21T15:55:43;7.23;;;6.50;;
12906;SDS011;6521;50.498;8.474;2023-03-21T15:58:40;12.90;;;8.47;;
12906;SDS011;6521;50.498;8.474;2023-03-21T16:01:34;8.63;;;6.73;;
12906;SDS011;6521;50.498;8.474;2023-03-21T16:04:29;9.07;;;6.00;;
12906;SDS011;6521;50.498;8.474;2023-03-21T16:07:22;9.90;;;6.90;;
12906;SDS011;6521;50.498;8.474;2023-03-21T16:10:23;9.40;;;6.50;;
12906;SDS011;6521;50.498;8.474;2023-03-21T16:13:21;9.03;;;7.17;;
12906;SDS011;6521;50.498;8.474;2023-03-21T16:16:16;10.47;;;7.03;;
12906;SDS011;6521;50.498;8.474;2023-03-21T16:19:10;9.13;;;7.17;;
12906;SDS011;6521;50.498;8.474;2023-03-21T16:22:01;10.20;;;7.17;;
12906;SDS011;6521;50.498;8.474;2023-03-21T16:24:51;8.30;;;6.57;;
12906;SDS011;6521;50.498;8.474;2023-03-21T16:27:43;10.97;;;6.33;;
12906;SDS011;6521;50.498;8.474;2023-03-21T16:30:35;9.00;;;6.63;;
12906;SDS011;6521;50.498;8.474;2023-03-21T16:33:27;9.60;;;6.37;;
12906;SDS011;6521;50.498;8.474;2023-03-21T16:36:25;8.80;;;6.10;;
12906;SDS011;6521;50.498;8.474;2023-03-21T16:39:19;7.47;;;5.83;;
12906;SDS011;6521;50.498;8.474;2023-03-21T16:42:12;10.33;;;6.97;;
12906;SDS011;6521;50.498;8.474;2023-03-21T16:45:03;11.07;;;6.47;;
12906;SDS011;6521;50.498;8.474;2023-03-21T16:47:54;8.20;;;6.03;;
12906;SDS011;6521;50.498;8.474;2023-03-21T16:50:45;7.10;;;5.97;;
12906;SDS011;6521;50.498;8.474;2023-03-21T16:53:37;8.53;;;5.93;;
12906;SDS011;6521;50.498;8.474;2023-03-21T16:56:29;7.10;;;5.33;;
12906;SDS011;6521;50.498;8.474;2023-03-21T16:59:25;11.60;;;4.50;;
12906;SDS011;6521;50.498;8.474;2023-03-21T17:02:16;6.93;;;4.70;;
12906;SDS011;6521;50.498;8.474;2023-03-21T17:05:07;7.73;;;5.37;;
12906;SDS011;6521;50.498;8.474;2023-03-21T17:08:04;7.23;;;4.87;;
12906;SDS011;6521;50.498;8.474;2023-03-21T17:10:56;8.40;;;5.40;;
12906;SDS011;6521;50.498;8.474;2023-03-21T17:13:49;7.13;;;5.60;;
12906;SDS011;6521;50.498;8.474;2023-03-21T17:16:41;10.93;;;5.77;;
12906;SDS011;6521;50.498;8.474;2023-03-21T17:19:32;7.07;;;4.83;;
12906;SDS011;6521;50.498;8.474;2023-03-21T17:22:26;7.10;;;5.20;;
12906;SDS011;6521;50.498;8.474;2023-03-21T17:25:17;7.70;;;5.00;;
12906;SDS011;6521;50.498;8.474;2023-03-21T17:28:11;8.87;;;5.37;;
12906;SDS011;6521;50.498;8.474;2023-03-21T17:31:02;14.43;;;10.53;;
12906;SDS011;6521;50.498;8.474;2023-03-21T17:33:54;10.67;;;6.60;;
12906;SDS011;6521;50.498;8.474;2023-03-21T17:36:45;9.13;;;6.47;;
12906;SDS011;6521;50.498;8.474;2023-03-21T17:39:38;11.13;;;6.87;;
12906;SDS011;6521;50.498;8.474;2023-03-21T17:42:29;10.37;;;6.00;;
12906;SDS011;6521;50.498;8.474;2023-03-21T17:45:21;11.57;;;7.90;;
12906;SDS011;6521;50.498;8.474;2023-03-21T17:48:12;6.23;;;5.53;;
12906;SDS011;6521;50.498;8.474;2023-03-21T17:51:03;10.90;;;6.60;;
12906;SDS011;6521;50.498;8.474;2023-03-21T17:53:55;6.67;;;5.80;;
12906;SDS011;6521;50.498;8.474;2023-03-21T17:56:46;11.07;;;6.13;;
12906;SDS011;6521;50.498;8.474;2023-03-21T17:59:37;8.00;;;6.60;;
12906;SDS011;6521;50.498;8.474;2023-03-21T18:02:29;8.77;;;6.33;;
12906;SDS011;6521;50.498;8.474;2023-03-21T18:05:24;12.00;;;7.23;;
12906;SDS011;6521;50.498;8.474;2023-03-21T18:08:17;13.90;;;7.33;;
12906;SDS011;6521;50.498;8.474;2023-03-21T18:11:11;10.53;;;7.57;;
12906;SDS011;6521;50.498;8.474;2023-03-21T18:14:03;10.67;;;7.53;;
12906;SDS011;6521;50.498;8.474;2023-03-21T18:16:55;9.30;;;6.10;;
12906;SDS011;6521;50.498;8.474;2023-03-21T18:19:49;8.03;;;6.40;;
12906;SDS011;6521;50.498;8.474;2023-03-21T18:22:45;8.47;;;6.97;;
12906;SDS011;6521;50.498;8.474;2023-03-21T18:25:37;11.13;;;6.30;;
12906;SDS011;6521;50.498;8.474;2023-03-21T18:28:31;7.83;;;6.77;;
12906;SDS011;6521;50.498;8.474;2023-03-21T18:31:22;10.10;;;6.67;;
12906;SDS011;6521;50.498;8.474;2023-03-21T18:34:13;8.73;;;7.10;;
12906;SDS011;6521;50.498;8.474;2023-03-21T18:37:13;8.57;;;6.43;;
12906;SDS011;6521;50.498;8.474;2023-03-21T18:40:12;8.10;;;6.03;;
12906;SDS011;6521;50.498;8.474;2023-03-21T18:43:04;7.17;;;5.50;;
12906;SDS011;6521;50.498;8.474;2023-03-21T18:46:02;9.13;;;6.57;;
12906;SDS011;6521;50.498;8.474;2023-03-21T18:48:53;11.53;;;7.60;;
12906;SDS011;6521;50.498;8.474;2023-03-21T18:51:44;13.07;;;9.57;;
12906;SDS011;6521;50.498;8.474;2023-03-21T18:54:36;12.23;;;9.20;;
12906;SDS011;6521;50.498;8.474;2023-03-21T18:57:27;10.57;;;8.73;;
12906;SDS011;6521;50.498;8.474;2023-03-21T19:00:20;9.87;;;8.83;;
12906;SDS011;6521;50.498;8.474;2023-03-21T19:03:17;13.67;;;10.20;;
12906;SDS011;6521;50.498;8.474;2023-03-21T19:06:08;13.37;;;10.13;;
12906;SDS011;6521;50.498;8.474;2023-03-21T19:09:02;22.00;;;13.47;;
12906;SDS011;6521;50.498;8.474;2023-03-21T19:11:53;19.23;;;12.00;;
12906;SDS011;6521;50.498;8.474;2023-03-21T19:14:44;13.63;;;10.47;;
12906;SDS011;6521;50.498;8.474;2023-03-21T19:17:35;16.40;;;9.53;;
12906;SDS011;6521;50.498;8.474;2023-03-21T19:20:27;12.60;;;8.90;;
12906;SDS011;6521;50.498;8.474;2023-03-21T19:23:18;8.93;;;7.83;;
12906;SDS011;6521;50.498;8.474;2023-03-21T19:26:10;11.47;;;7.83;;
12906;SDS011;6521;50.498;8.474;2023-03-21T19:29:01;10.23;;;7.67;;
12906;SDS011;6521;50.498;8.474;2023-03-21T19:31:52;8.43;;;6.97;;